createdAt,value
2022-09-23T00:05:03.309Z,15.46
2022-09-23T00:10:00.336Z,14.98
2022-09-23T00:14:57.321Z,15.41
2022-09-23T00:19:59.660Z,15.13
2022-09-23T00:24:59.436Z,14.95
2022-09-23T00:29:56.836Z,14.84
2022-09-23T00:34:57.494Z,15.29
2022-09-23T00:39:56.471Z,14.82
2022-09-23T00:44:56.738Z,15.08
2022-09-23T00:50:06.617Z,14.68
2022-09-23T00:55:14.675Z,14.56
2022-09-23T01:00:13.136Z,14.59
2022-09-23T01:05:11.306Z,14.93
2022-09-23T01:10:10.909Z,14.45
2022-09-23T01:15:15.293Z,14.35
2022-09-23T01:20:41.904Z,14.76
2022-09-23T01:26:03.427Z,14.72
2022-09-23T01:31:07.589Z,14.77
2022-09-23T01:36:18.980Z,14.64
2022-09-23T01:41:41.228Z,14.44
2022-09-23T01:46:47.955Z,14.56
2022-09-23T01:51:50.379Z,14.32
2022-09-23T01:56:51.914Z,14.46
2022-09-23T02:01:55.455Z,14.38
2022-09-23T02:07:00.436Z,14.08
2022-09-23T02:12:04.299Z,14.16
2022-09-23T02:17:08.395Z,14.11
2022-09-23T02:22:08.772Z,13.36
2022-09-23T02:27:18.933Z,13.87
2022-09-23T02:32:46.694Z,13.75
2022-09-23T02:37:49.339Z,13.42
2022-09-23T02:42:55.872Z,13.94
2022-09-23T02:47:58.727Z,14.05
2022-09-23T02:52:55.893Z,14.12
2022-09-23T02:57:53.059Z,13.73
2022-09-23T03:03:10.000Z,14.12
2022-09-23T03:08:36.664Z,14.12
2022-09-23T03:19:55.912Z,14.15
2022-09-23T03:24:56.944Z,14.15
2022-09-23T03:29:56.666Z,13.88
2022-09-23T03:34:58.983Z,14.17
2022-09-23T03:40:21.991Z,13.75
2022-09-23T03:45:32.911Z,13.67
2022-09-23T03:50:45.245Z,14.37
2022-09-23T03:55:50.197Z,14.05
2022-09-23T04:00:51.065Z,14.21
2022-09-23T04:05:56.099Z,14.09
2022-09-23T04:10:56.858Z,13.91
2022-09-23T04:15:58.604Z,14.18
2022-09-23T04:21:10.436Z,13.87
2022-09-23T04:26:14.647Z,14.08
2022-09-23T04:31:57.285Z,14.54
2022-09-23T04:37:02.722Z,14.09
2022-09-23T04:42:10.519Z,14.64
2022-09-23T04:47:11.984Z,14.35
2022-09-23T04:52:49.328Z,14.37
2022-09-23T04:57:58.303Z,14.54
2022-09-23T05:03:11.577Z,15.07
2022-09-23T05:09:06.373Z,15.06
2022-09-23T05:20:16.546Z,14.61
2022-09-23T05:25:24.266Z,15.36
2022-09-23T05:30:33.605Z,15.55
2022-09-23T05:35:51.480Z,15.71
2022-09-23T05:40:58.102Z,16.01
2022-09-23T05:46:09.081Z,16.82
2022-09-23T05:51:10.685Z,17.39
2022-09-23T05:56:08.568Z,18.26
2022-09-23T06:01:10.847Z,17.96
2022-09-23T06:06:28.201Z,18.56
2022-09-23T06:11:32.774Z,18.34
2022-09-23T06:16:35.456Z,18.41
2022-09-23T06:21:34.647Z,18.70
2022-09-23T06:26:37.951Z,19.40
2022-09-23T06:31:37.433Z,19.96
2022-09-23T06:36:46.510Z,20.48
2022-09-23T06:41:55.776Z,22.05
2022-09-23T06:47:13.325Z,23.20
2022-09-23T06:52:13.360Z,22.86
2022-09-23T06:57:31.410Z,22.20
2022-09-23T07:02:37.792Z,21.71
2022-09-23T07:07:53.410Z,20.37
2022-09-23T07:13:23.429Z,19.62
2022-09-23T07:18:45.209Z,18.69
2022-09-23T07:36:13.026Z,16.59
2022-09-23T07:48:34.114Z,16.47
2022-09-23T07:59:47.434Z,16.27
2022-09-23T08:04:47.213Z,15.53
2022-09-23T08:10:02.880Z,15.39
2022-09-23T08:15:32.825Z,15.26
2022-09-23T08:22:25.698Z,14.63
2022-09-23T08:27:08.933Z,15.22
2022-09-23T08:32:06.642Z,14.51
2022-09-23T08:37:17.093Z,14.69
2022-09-23T08:42:27.727Z,14.89
2022-09-23T08:48:12.226Z,15.25
2022-09-23T08:53:48.279Z,15.45
2022-09-23T08:59:07.072Z,15.50
2022-09-23T09:04:33.385Z,16.13
2022-09-23T09:10:33.645Z,17.23
2022-09-23T09:15:51.306Z,17.79
2022-09-23T09:21:29.438Z,18.28
2022-09-23T09:26:55.575Z,18.36
2022-09-23T09:32:15.076Z,19.17
2022-09-23T09:37:39.025Z,19.53
2022-09-23T09:42:47.907Z,19.71
2022-09-23T09:54:04.726Z,20.62
2022-09-23T09:59:48.680Z,20.77
2022-09-23T10:05:46.846Z,22.24
2022-09-23T10:11:23.408Z,23.26
2022-09-23T10:16:36.372Z,24.13
2022-09-23T10:21:54.958Z,24.85
2022-09-23T10:27:08.512Z,25.08
2022-09-23T10:32:45.227Z,25.25
2022-09-23T10:44:53.706Z,24.60
2022-09-23T10:57:03.320Z,23.44
2022-09-23T11:02:51.157Z,23.52
2022-09-23T11:14:04.879Z,22.57
2022-09-23T11:19:47.193Z,22.61
2022-09-23T11:25:28.577Z,22.08
2022-09-23T11:31:08.702Z,21.73
2022-09-23T11:36:22.127Z,21.74
2022-09-23T11:41:28.374Z,21.65
2022-09-23T11:47:11.927Z,22.05
2022-09-23T11:52:19.290Z,21.56
2022-09-23T11:58:04.224Z,21.90
2022-09-23T12:03:42.260Z,21.79
2022-09-23T12:09:56.714Z,21.40
2022-09-23T12:20:53.168Z,21.17
2022-09-23T12:26:25.948Z,21.50
2022-09-23T12:38:35.014Z,21.61
2022-09-23T12:44:06.455Z,21.55
2022-09-23T12:49:42.789Z,21.31
2022-09-23T12:55:17.670Z,21.72
2022-09-23T13:00:50.350Z,21.27
2022-09-23T13:06:30.849Z,21.01
2022-09-23T13:12:14.615Z,21.35
2022-09-23T13:17:43.645Z,20.93
2022-09-23T13:23:20.539Z,21.06
2022-09-23T13:28:57.245Z,20.99
2022-09-23T13:41:05.273Z,20.72
2022-09-23T13:46:32.481Z,20.55
2022-09-23T13:52:17.677Z,20.63
2022-09-23T13:57:34.499Z,20.56
2022-09-23T14:02:45.102Z,20.39
2022-09-23T14:08:02.385Z,20.47
2022-09-23T14:13:16.079Z,20.48
2022-09-23T14:24:00.106Z,19.98
2022-09-23T14:29:34.215Z,19.91
2022-09-23T14:34:56.556Z,19.85
2022-09-23T14:40:02.926Z,19.77
2022-09-23T14:45:10.781Z,19.75
2022-09-23T14:51:05.985Z,19.96
2022-09-23T14:56:30.039Z,19.99
2022-09-23T15:01:41.592Z,19.64
2022-09-23T15:12:30.077Z,19.10
2022-09-23T15:22:49.531Z,17.74
2022-09-23T15:28:17.623Z,16.97
2022-09-23T15:33:27.144Z,16.76
2022-09-23T15:38:27.993Z,16.57
2022-09-23T15:43:28.744Z,16.12
2022-09-23T15:48:31.168Z,16.34
2022-09-23T15:54:22.407Z,16.48
2022-09-23T15:59:45.573Z,16.95
2022-09-23T16:04:44.175Z,16.62
2022-09-23T16:09:55.595Z,16.93
2022-09-23T16:15:13.208Z,16.68
2022-09-23T16:20:21.117Z,16.87
2022-09-23T16:25:28.840Z,16.57
2022-09-23T16:30:49.063Z,16.26
2022-09-23T16:35:52.090Z,16.26
2022-09-23T16:41:10.796Z,16.07
2022-09-23T16:46:08.857Z,16.18
2022-09-23T16:51:19.938Z,16.43
2022-09-23T16:56:33.870Z,16.42
2022-09-23T17:01:58.245Z,16.08
2022-09-23T17:06:58.698Z,16.22
2022-09-23T17:12:22.924Z,16.23
2022-09-23T17:17:23.290Z,16.04
2022-09-23T17:22:33.359Z,15.94
2022-09-23T17:27:36.323Z,16.20
2022-09-23T17:32:52.316Z,15.79
2022-09-23T17:37:59.940Z,16.22
2022-09-23T17:43:21.104Z,15.89
2022-09-23T17:48:43.215Z,16.28
2022-09-23T17:53:47.739Z,15.84
2022-09-23T17:58:51.152Z,15.63
2022-09-23T18:09:36.404Z,14.61
2022-09-23T18:14:41.146Z,14.73
2022-09-23T18:19:52.212Z,14.76
2022-09-23T18:25:06.275Z,15.07
2022-09-23T18:30:29.086Z,14.65
2022-09-23T18:35:30.110Z,14.80
2022-09-23T18:40:35.765Z,15.38
2022-09-23T18:45:40.574Z,14.97
2022-09-23T18:50:43.135Z,15.17
2022-09-23T18:55:42.088Z,15.34
2022-09-23T19:00:40.246Z,15.42
2022-09-23T19:05:40.367Z,15.06
2022-09-23T19:10:39.264Z,14.97
2022-09-23T19:15:41.849Z,15.16
2022-09-23T19:20:51.963Z,14.60
2022-09-23T19:31:26.140Z,14.77
2022-09-23T19:36:30.362Z,14.66
2022-09-23T19:41:32.340Z,14.94
2022-09-23T19:46:44.000Z,14.71
2022-09-23T19:52:01.956Z,14.10
2022-09-23T19:57:36.748Z,14.28
2022-09-23T20:02:47.350Z,14.63
2022-09-23T20:07:46.705Z,14.53
2022-09-23T20:12:56.031Z,14.82
2022-09-23T20:18:03.299Z,14.30
2022-09-23T20:23:01.314Z,14.53
2022-09-23T20:27:58.578Z,14.81
2022-09-23T20:33:07.398Z,14.83
2022-09-23T20:38:09.950Z,14.59
2022-09-23T20:43:09.542Z,14.60
2022-09-23T20:48:21.935Z,15.00
2022-09-23T20:53:34.586Z,14.79
2022-09-23T20:58:42.274Z,14.72
2022-09-23T21:03:44.030Z,14.96
2022-09-23T21:08:57.426Z,14.53
2022-09-23T21:13:58.280Z,14.64
2022-09-23T21:19:03.700Z,14.79
2022-09-23T21:24:31.286Z,15.11
2022-09-23T21:29:33.295Z,14.64
2022-09-23T21:34:40.759Z,15.23
2022-09-23T21:39:58.975Z,14.94
2022-09-23T21:45:08.994Z,15.27
2022-09-23T21:50:16.710Z,15.49
2022-09-23T21:55:14.517Z,15.37
2022-09-23T22:00:16.915Z,15.58
2022-09-23T22:05:24.079Z,15.84
2022-09-23T22:10:31.162Z,16.05
2022-09-23T22:15:31.243Z,15.94
2022-09-23T22:20:28.681Z,15.45
2022-09-23T22:25:26.772Z,15.79
2022-09-23T22:30:44.553Z,15.56
2022-09-23T22:35:41.818Z,15.57
2022-09-23T22:40:45.828Z,16.00
2022-09-23T22:45:49.525Z,15.91
2022-09-23T22:50:49.386Z,15.61
2022-09-23T22:55:58.239Z,15.89
2022-09-23T23:01:03.689Z,15.67
2022-09-23T23:06:04.819Z,15.04
2022-09-23T23:11:09.639Z,15.06
2022-09-23T23:16:08.847Z,15.07
2022-09-23T23:21:07.528Z,14.53
2022-09-23T23:26:11.502Z,14.62
2022-09-23T23:31:26.047Z,14.49
2022-09-23T23:36:23.896Z,14.15
2022-09-23T23:41:35.084Z,14.37
2022-09-23T23:46:36.698Z,14.25
2022-09-23T23:51:49.425Z,14.00
2022-09-23T23:56:47.404Z,13.64
